Time;durP1;ratioP1;P1;durP2;ratioP2;P2;SDS_P1;SDS_P2;PMS_P1;PMS_P2;Temp;Humidity;BMP_temperature;BMP_pressure;BME280_temperature;BME280_humidity;BME280_pressure;Samples;Min_cycle;Max_cycle;Signal;HPM_P1;HPM_P2
2023/12/26 00:00:17;;;;;;;;;;;;;;;;;;5090732;28;1401;-59
2023/12/26 00:02:42;;;;;;;;;;;;;;;;;;5091774;28;938;-59
2023/12/26 00:05:08;;;;;;;;;;;;;;;;;;5092199;28;879;-59
2023/12/26 00:07:33;;;;;;;;;;;;;;;;;;5091770;28;880;-58
2023/12/26 00:09:58;;;;;;;;;;;;;;;;;;5090443;28;892;-59
2023/12/26 00:12:24;;;;;;;;;;;;;;;;;;5091675;28;1054;-58
2023/12/26 00:14:50;;;;;;;;;;;;;;;;;;5091349;28;1910;-59
2023/12/26 00:17:15;;;;;;;;;;;;;;;;;;5091563;28;852;-57
2023/12/26 00:19:41;;;;;;;;;;;;;;;;;;5091144;28;884;-58
2023/12/26 00:22:06;;;;;;;;;;;;;;;;;;5091452;28;865;-58
2023/12/26 00:24:32;;;;;;;;;;;;;;;;;;5091318;28;899;-58
2023/12/26 00:26:57;;;;;;;;;;;;;;;;;;5091322;28;1010;-58
2023/12/26 00:29:24;;;;;;;;;;;;;;;;;;5091125;28;840;-58
2023/12/26 00:31:49;;;;;;;;;;;;;;;;;;5090940;28;829;-58
2023/12/26 00:34:14;;;;;;;;;;;;;;;;;;5091338;28;1976;-59
2023/12/26 00:36:40;;;;;;;;;;;;;;;;;;5090993;28;848;-59
2023/12/26 00:39:06;;;;;;;;;;;;;;;;;;5091060;28;1179;-59
2023/12/26 00:41:31;;;;;;;;;;;;;;;;;;5090724;28;832;-59
2023/12/26 00:43:56;;;;;;;;;;;;;;;;;;5091016;28;876;-59
2023/12/26 00:46:22;;;;;;;;;;;;;;;;;;5090704;28;852;-59
2023/12/26 00:48:47;;;;;;;;;;;;;;;;;;5091049;28;1006;-59
2023/12/26 00:51:12;;;;;;;;;;;;;;;;;;5090996;28;1026;-59
2023/12/26 00:53:37;;;;;;;;;;;;;;;;;;5090505;28;1883;-59
2023/12/26 00:56:03;;;;;;;;;;;;;;;;;;5090978;28;833;-59
2023/12/26 00:58:28;;;;;;;;;;;;;;;;;;5090401;28;891;-58
2023/12/26 01:00:53;;;;;;;;;;;;;;;;;;5090103;28;888;-58
2023/12/26 01:03:22;;;;;;;;;;;;;;;;;;5090628;28;943;-57
2023/12/26 01:05:50;;;;;;;;;;;;;;;;;;5082177;28;848;-60
2023/12/26 01:08:16;;;;;;;;;;;;;;;;;;5076770;28;840;-58
2023/12/26 01:10:42;;;;;;;;;;;;;;;;;;5076694;28;825;-57
2023/12/26 01:13:07;;;;;;;;;;;;;;;;;;5076749;28;1961;-58
2023/12/26 01:15:32;;;;;;;;;;;;;;;;;;5076835;28;713;-59
2023/12/26 01:17:58;;;;;;;;;;;;;;;;;;5076685;28;884;-60
2023/12/26 01:20:23;;;;;;;;;;;;;;;;;;5076553;28;860;-58
2023/12/26 01:22:48;;;;;;;;;;;;;;;;;;5076603;28;899;-59
2023/12/26 01:25:14;;;;;;;;;;;;;;;;;;5076427;28;1003;-59
2023/12/26 01:27:39;;;;;;;;;;;;;;;;;;5076732;28;895;-58
2023/12/26 01:30:05;;;;;;;;;;;;;;;;;;5076688;28;999;-58
2023/12/26 01:32:30;;;;;;;;;;;;;;;;;;5076283;28;837;-59
2023/12/26 01:34:56;;;;;;;;;;;;;;;;;;5076335;28;1878;-58
2023/12/26 01:37:21;;;;;;;;;;;;;;;;;;5076225;28;856;-59
2023/12/26 01:39:46;;;;;;;;;;;;;;;;;;5076426;28;871;-58
2023/12/26 01:42:13;;;;;;;;;;;;;;;;;;5074811;28;1530;-58
2023/12/26 01:44:38;;;;;;;;;;;;;;;;;;5076143;28;852;-59
2023/12/26 01:47:03;;;;;;;;;;;;;;;;;;5074684;28;1195;-59
2023/12/26 01:49:29;;;;;;;;;;;;;;;;;;5075800;28;765;-59
2023/12/26 01:51:55;;;;;;;;;;;;;;;;;;5076086;28;856;-59
2023/12/26 01:54:24;;;;;;;;;;;;;;;;;;5075663;28;1905;-59
2023/12/26 01:56:49;;;;;;;;;;;;;;;;;;5076220;28;852;-59
2023/12/26 01:59:15;;;;;;;;;;;;;;;;;;5091170;28;988;-59
2023/12/26 02:01:40;;;;;;;;;;;;;;;;;;5075910;28;828;-58
2023/12/26 02:04:06;;;;;;;;;;;;;;;;;;5074437;28;887;-59
2023/12/26 02:06:33;;;;;;;;;;;;;;;;;;5106419;28;920;-58
2023/12/26 02:08:59;;;;;;;;;;;;;;;;;;5074036;28;1030;-58
2023/12/26 02:11:24;;;;;;;;;;;;;;;;;;5072715;28;1487;-59
2023/12/26 02:13:50;;;;;;;;;;;;;;;;;;5072680;28;1906;-58
2023/12/26 02:16:18;;;;;;;;;;;;;;;;;;5073910;28;1158;-57
2023/12/26 02:18:44;;;;;;;;;;;;;;;;;;5074552;28;915;-58
2023/12/26 02:21:10;;;;;;;;;;;;;;;;;;5108362;28;844;-59
2023/12/26 02:23:36;;;;;;;;;;;;;;;;;;5075343;28;852;-59
2023/12/26 02:26:03;;;;;;;;;;;;;;;;;;5075528;28;896;-59
2023/12/26 02:28:29;;;;;;;;;;;;;;;;;;5073953;28;837;-59
2023/12/26 02:30:55;;;;;;;;;;;;;;;;;;5075408;28;1011;-59
2023/12/26 02:33:21;;;;;;;;;;;;;;;;;;5073957;28;1971;-59
2023/12/26 02:35:46;;;;;;;;;;;;;;;;;;5075941;28;856;-59
2023/12/26 02:38:12;;;;;;;;;;;;;;;;;;5074941;28;1113;-58
2023/12/26 02:40:37;;;;;;;;;;;;;;;;;;5075314;28;852;-59
2023/12/26 02:43:03;;;;;;;;;;;;;;;;;;5074722;28;931;-59
2023/12/26 02:45:28;;;;;;;;;;;;;;;;;;5074902;28;1054;-59
2023/12/26 02:47:53;;;;;;;;;;;;;;;;;;5075156;28;1019;-59
2023/12/26 02:50:19;;;;;;;;;;;;;;;;;;5074808;28;836;-59
2023/12/26 02:52:44;;;;;;;;;;;;;;;;;;5074539;28;832;-59
2023/12/26 02:55:09;;;;;;;;;;;;;;;;;;5075015;28;1897;-60
2023/12/26 02:57:35;;;;;;;;;;;;;;;;;;5074647;28;955;-59
2023/12/26 03:00:00;;;;;;;;;;;;;;;;;;5074603;28;867;-58
2023/12/26 03:02:25;;;;;;;;;;;;;;;;;;5073320;28;805;-58
2023/12/26 03:04:51;;;;;;;;;;;;;;;;;;5074412;28;832;-61
2023/12/26 03:07:17;;;;;;;;;;;;;;;;;;5074084;28;845;-58
2023/12/26 03:09:42;;;;;;;;;;;;;;;;;;5074074;28;860;-58
2023/12/26 03:12:07;;;;;;;;;;;;;;;;;;5074516;28;848;-59
2023/12/26 03:14:33;;;;;;;;;;;;;;;;;;5074319;28;1977;-59
2023/12/26 03:16:58;;;;;;;;;;;;;;;;;;5074109;28;856;-58
2023/12/26 03:19:23;;;;;;;;;;;;;;;;;;5074089;28;1047;-59
2023/12/26 03:21:48;;;;;;;;;;;;;;;;;;5074042;28;829;-59
2023/12/26 03:24:14;;;;;;;;;;;;;;;;;;5073878;28;896;-59
2023/12/26 03:26:40;;;;;;;;;;;;;;;;;;5074284;28;892;-59
2023/12/26 03:29:05;;;;;;;;;;;;;;;;;;5074369;28;844;-57
2023/12/26 03:31:30;;;;;;;;;;;;;;;;;;5074518;28;840;-61
2023/12/26 03:33:56;;;;;;;;;;;;;;;;;;5072669;28;1905;-59
2023/12/26 03:36:21;;;;;;;;;;;;;;;;;;5074596;28;890;-59
2023/12/26 03:38:47;;;;;;;;;;;;;;;;;;5107329;28;970;-58
2023/12/26 03:41:13;;;;;;;;;;;;;;;;;;5073937;28;884;-57
2023/12/26 03:43:38;;;;;;;;;;;;;;;;;;5074087;28;778;-59
2023/12/26 03:46:04;;;;;;;;;;;;;;;;;;5106629;28;852;-57
2023/12/26 03:48:29;;;;;;;;;;;;;;;;;;5073870;28;958;-59
2023/12/26 03:50:54;;;;;;;;;;;;;;;;;;5073978;28;856;-60
2023/12/26 03:53:19;;;;;;;;;;;;;;;;;;5073942;28;1951;-59
2023/12/26 03:55:46;;;;;;;;;;;;;;;;;;5106811;28;962;-59
2023/12/26 03:58:12;;;;;;;;;;;;;;;;;;5074540;28;852;-57
2023/12/26 04:00:37;;;;;;;;;;;;;;;;;;5074237;28;920;-58
2023/12/26 04:03:03;;;;;;;;;;;;;;;;;;5073812;28;1100;-58
2023/12/26 04:05:28;;;;;;;;;;;;;;;;;;5106863;28;872;-59
2023/12/26 04:07:53;;;;;;;;;;;;;;;;;;5072693;28;760;-59
2023/12/26 04:10:19;;;;;;;;;;;;;;;;;;5074044;28;824;-59
2023/12/26 04:12:45;;;;;;;;;;;;;;;;;;5073999;28;899;-58
2023/12/26 04:15:10;;;;;;;;;;;;;;;;;;5072810;28;1951;-59
2023/12/26 04:17:35;;;;;;;;;;;;;;;;;;5074522;28;943;-58
2023/12/26 04:20:01;;;;;;;;;;;;;;;;;;5107090;28;1002;-58
2023/12/26 04:22:26;;;;;;;;;;;;;;;;;;5074089;28;840;-58
2023/12/26 04:24:51;;;;;;;;;;;;;;;;;;5073808;28;825;-59
2023/12/26 04:27:16;;;;;;;;;;;;;;;;;;5074068;28;879;-58
2023/12/26 04:29:42;;;;;;;;;;;;;;;;;;5074006;28;825;-59
2023/12/26 04:32:07;;;;;;;;;;;;;;;;;;5074356;28;1121;-59
2023/12/26 04:34:32;;;;;;;;;;;;;;;;;;5073717;28;1961;-59
2023/12/26 04:36:58;;;;;;;;;;;;;;;;;;5074049;28;903;-58
2023/12/26 04:39:23;;;;;;;;;;;;;;;;;;5073164;28;1180;-60
2023/12/26 04:41:49;;;;;;;;;;;;;;;;;;5077223;28;1151;-59
2023/12/26 04:44:14;;;;;;;;;;;;;;;;;;5077580;28;911;-58
2023/12/26 04:46:40;;;;;;;;;;;;;;;;;;5092982;28;1309;-58
2023/12/26 04:49:05;;;;;;;;;;;;;;;;;;5076139;28;947;-59
2023/12/26 04:51:30;;;;;;;;;;;;;;;;;;5077671;28;876;-59
2023/12/26 04:53:56;;;;;;;;;;;;;;;;;;5077106;28;1907;-58
2023/12/26 04:56:21;;;;;;;;;;;;;;;;;;5077289;28;867;-59
2023/12/26 04:58:47;;;;;;;;;;;;;;;;;;5077006;28;915;-58
2023/12/26 05:01:13;;;;;;;;;;;;;;;;;;5076664;28;973;-60
2023/12/26 05:03:38;;;;;;;;;;;;;;;;;;5076246;28;1000;-58
2023/12/26 05:06:04;;;;;;;;;;;;;;;;;;5075394;28;903;-59
2023/12/26 05:08:29;;;;;;;;;;;;;;;;;;5073750;28;875;-59
2023/12/26 05:10:55;;;;;;;;;;;;;;;;;;5073922;28;1153;-58
2023/12/26 05:13:20;;;;;;;;;;;;;;;;;;5074838;28;1906;-58
2023/12/26 05:15:46;;;;;;;;;;;;;;;;;;5076054;28;1006;-59
2023/12/26 05:18:11;;;;;;;;;;;;;;;;;;5075488;28;816;-59
2023/12/26 05:20:38;;;;;;;;;;;;;;;;;;5077144;28;903;-59
2023/12/26 05:23:03;;;;;;;;;;;;;;;;;;5077266;28;664;-58
2023/12/26 05:25:28;;;;;;;;;;;;;;;;;;5076942;28;809;-60
2023/12/26 05:27:54;;;;;;;;;;;;;;;;;;5075207;28;817;-59
2023/12/26 05:30:19;;;;;;;;;;;;;;;;;;5077076;28;860;-59
2023/12/26 05:32:44;;;;;;;;;;;;;;;;;;5076499;28;1140;-59
2023/12/26 05:35:09;;;;;;;;;;;;;;;;;;5076661;28;1898;-58
2023/12/26 05:37:35;;;;;;;;;;;;;;;;;;5076315;28;931;-58
2023/12/26 05:40:00;;;;;;;;;;;;;;;;;;5076683;28;793;-58
2023/12/26 05:42:26;;;;;;;;;;;;;;;;;;5076813;28;938;-57
2023/12/26 05:44:51;;;;;;;;;;;;;;;;;;5076714;28;849;-57
2023/12/26 05:47:17;;;;;;;;;;;;;;;;;;5076708;28;837;-59
2023/12/26 05:49:42;;;;;;;;;;;;;;;;;;5075213;28;903;-58
2023/12/26 05:52:08;;;;;;;;;;;;;;;;;;5076702;28;821;-58
2023/12/26 05:54:33;;;;;;;;;;;;;;;;;;5108664;28;1979;-58
2023/12/26 05:56:58;;;;;;;;;;;;;;;;;;5076364;28;891;-58
2023/12/26 05:59:24;;;;;;;;;;;;;;;;;;5076201;28;963;-58
2023/12/26 06:01:49;;;;;;;;;;;;;;;;;;5076866;28;837;-59
2023/12/26 06:04:14;;;;;;;;;;;;;;;;;;5076361;28;987;-59
2023/12/26 06:06:40;;;;;;;;;;;;;;;;;;5076099;28;887;-58
2023/12/26 06:09:05;;;;;;;;;;;;;;;;;;5076489;28;911;-58
2023/12/26 06:11:30;;;;;;;;;;;;;;;;;;5075638;28;935;-59
2023/12/26 06:13:56;;;;;;;;;;;;;;;;;;5076202;28;2418;-58
2023/12/26 06:16:21;;;;;;;;;;;;;;;;;;5108724;28;868;-57
2023/12/26 06:18:46;;;;;;;;;;;;;;;;;;5075714;28;840;-57
2023/12/26 06:21:12;;;;;;;;;;;;;;;;;;5075506;28;872;-58
2023/12/26 06:23:37;;;;;;;;;;;;;;;;;;5075554;28;880;-58
2023/12/26 06:26:03;;;;;;;;;;;;;;;;;;5075914;28;932;-59
2023/12/26 06:28:28;;;;;;;;;;;;;;;;;;5075828;28;883;-59
2023/12/26 06:30:53;;;;;;;;;;;;;;;;;;5075416;28;924;-57
2023/12/26 06:33:19;;;;;;;;;;;;;;;;;;5073686;28;1973;-57
2023/12/26 06:35:44;;;;;;;;;;;;;;;;;;5075119;28;859;-59
2023/12/26 06:38:12;;;;;;;;;;;;;;;;;;5074905;28;920;-58
2023/12/26 06:40:38;;;;;;;;;;;;;;;;;;5075473;28;864;-58
2023/12/26 06:43:04;;;;;;;;;;;;;;;;;;5075002;28;789;-57
2023/12/26 06:45:29;;;;;;;;;;;;;;;;;;5074662;28;1227;-58
2023/12/26 06:47:54;;;;;;;;;;;;;;;;;;5083597;28;1156;-58
2023/12/26 06:50:20;;;;;;;;;;;;;;;;;;5076227;28;1176;-58
2023/12/26 06:52:45;;;;;;;;;;;;;;;;;;5092138;28;1255;-59
2023/12/26 06:55:10;;;;;;;;;;;;;;;;;;5095139;28;1897;-59
2023/12/26 06:57:36;;;;;;;;;;;;;;;;;;5095504;28;844;-59
2023/12/26 07:00:01;;;;;;;;;;;;;;;;;;5095231;28;894;-59
2023/12/26 07:02:27;;;;;;;;;;;;;;;;;;5094037;28;903;-59
2023/12/26 07:04:52;;;;;;;;;;;;;;;;;;5070334;28;1202;-59
2023/12/26 07:07:17;;;;;;;;;;;;;;;;;;5073960;28;1184;-57
2023/12/26 07:09:43;;;;;;;;;;;;;;;;;;5089150;28;1227;-58
2023/12/26 07:12:08;;;;;;;;;;;;;;;;;;5089859;28;1167;-59
2023/12/26 07:14:33;;;;;;;;;;;;;;;;;;5089140;28;1983;-59
2023/12/26 07:16:58;;;;;;;;;;;;;;;;;;5082205;28;1155;-58
2023/12/26 07:19:24;;;;;;;;;;;;;;;;;;5085846;28;1227;-60
2023/12/26 07:21:49;;;;;;;;;;;;;;;;;;5084981;28;1175;-57
2023/12/26 07:24:14;;;;;;;;;;;;;;;;;;5094718;28;923;-58
2023/12/26 07:26:40;;;;;;;;;;;;;;;;;;5095167;28;1065;-59
2023/12/26 07:29:05;;;;;;;;;;;;;;;;;;5094956;28;899;-58
2023/12/26 07:31:30;;;;;;;;;;;;;;;;;;5094725;28;848;-59
2023/12/26 07:33:57;;;;;;;;;;;;;;;;;;5094665;28;1890;-59
2023/12/26 07:36:23;;;;;;;;;;;;;;;;;;5095473;28;947;-59
2023/12/26 07:38:48;;;;;;;;;;;;;;;;;;5094986;28;888;-59
2023/12/26 07:41:14;;;;;;;;;;;;;;;;;;5094718;28;876;-58
2023/12/26 07:43:39;;;;;;;;;;;;;;;;;;5094888;28;829;-58
2023/12/26 07:46:05;;;;;;;;;;;;;;;;;;5094301;28;824;-59
2023/12/26 07:48:30;;;;;;;;;;;;;;;;;;5094495;28;918;-59
2023/12/26 07:50:55;;;;;;;;;;;;;;;;;;5094254;28;903;-59
2023/12/26 07:53:21;;;;;;;;;;;;;;;;;;5092733;28;1976;-58
2023/12/26 07:55:46;;;;;;;;;;;;;;;;;;5094522;28;828;-58
2023/12/26 07:58:11;;;;;;;;;;;;;;;;;;5094370;28;923;-58
2023/12/26 08:00:37;;;;;;;;;;;;;;;;;;5093479;28;1184;-58
2023/12/26 08:03:02;;;;;;;;;;;;;;;;;;5084748;28;1332;-58
2023/12/26 08:05:27;;;;;;;;;;;;;;;;;;5067975;28;1186;-58
2023/12/26 08:07:53;;;;;;;;;;;;;;;;;;5084295;28;1226;-59
2023/12/26 08:10:18;;;;;;;;;;;;;;;;;;5072505;28;1238;-57
2023/12/26 08:12:44;;;;;;;;;;;;;;;;;;5071694;28;920;-57
2023/12/26 08:15:09;;;;;;;;;;;;;;;;;;5072399;28;1906;-59
2023/12/26 08:17:35;;;;;;;;;;;;;;;;;;5075067;28;896;-58
2023/12/26 08:20:00;;;;;;;;;;;;;;;;;;5074971;28;1583;-58
2023/12/26 08:22:25;;;;;;;;;;;;;;;;;;5076846;28;852;-58
2023/12/26 08:24:50;;;;;;;;;;;;;;;;;;5076746;28;975;-58
2023/12/26 08:27:18;;;;;;;;;;;;;;;;;;5076754;28;907;-58
2023/12/26 08:29:43;;;;;;;;;;;;;;;;;;5077801;28;848;-57
2023/12/26 08:32:08;;;;;;;;;;;;;;;;;;5077932;28;884;-58
2023/12/26 08:34:33;;;;;;;;;;;;;;;;;;5077033;28;1902;-57
2023/12/26 08:36:59;;;;;;;;;;;;;;;;;;5077630;28;884;-58
2023/12/26 08:39:24;;;;;;;;;;;;;;;;;;5080034;28;1235;-58
2023/12/26 08:41:49;;;;;;;;;;;;;;;;;;5082087;28;1163;-58
2023/12/26 08:44:15;;;;;;;;;;;;;;;;;;5086710;28;1234;-59
2023/12/26 08:46:40;;;;;;;;;;;;;;;;;;5096138;28;887;-57
2023/12/26 08:49:05;;;;;;;;;;;;;;;;;;5095547;28;852;-56
2023/12/26 08:51:31;;;;;;;;;;;;;;;;;;5095617;28;828;-57
2023/12/26 08:53:56;;;;;;;;;;;;;;;;;;5095646;28;1964;-57
2023/12/26 08:56:24;;;;;;;;;;;;;;;;;;5098271;28;891;-59
2023/12/26 08:58:50;;;;;;;;;;;;;;;;;;5096441;28;1654;-59
2023/12/26 09:01:18;;;;;;;;;;;;;;;;;;5098008;28;859;-59
2023/12/26 09:03:44;;;;;;;;;;;;;;;;;;5097239;28;852;-58
2023/12/26 09:06:12;;;;;;;;;;;;;;;;;;5084473;28;1159;-58
2023/12/26 09:08:37;;;;;;;;;;;;;;;;;;5091621;28;1128;-58
2023/12/26 09:11:03;;;;;;;;;;;;;;;;;;5086528;28;1171;-58
2023/12/26 09:13:29;;;;;;;;;;;;;;;;;;5069524;28;1967;-59
2023/12/26 09:15:54;;;;;;;;;;;;;;;;;;5074643;28;1293;-59
2023/12/26 09:18:20;;;;;;;;;;;;;;;;;;5076903;28;1191;-59
2023/12/26 09:20:45;;;;;;;;;;;;;;;;;;5078749;28;1276;-59
2023/12/26 09:23:11;;;;;;;;;;;;;;;;;;5085386;28;1164;-59
2023/12/26 09:25:36;;;;;;;;;;;;;;;;;;5096952;28;911;-57
2023/12/26 09:28:02;;;;;;;;;;;;;;;;;;5094867;28;1339;-58
2023/12/26 09:30:27;;;;;;;;;;;;;;;;;;5096895;28;934;-56
2023/12/26 09:32:52;;;;;;;;;;;;;;;;;;5078916;28;824;-58
2023/12/26 09:35:18;;;;;;;;;;;;;;;;;;5095084;28;1894;-58
2023/12/26 09:37:43;;;;;;;;;;;;;;;;;;5095592;28;923;-58
2023/12/26 09:40:10;;;;;;;;;;;;;;;;;;5095814;28;837;-58
2023/12/26 09:42:36;;;;;;;;;;;;;;;;;;5096307;28;1051;-58
2023/12/26 09:45:03;;;;;;;;;;;;;;;;;;5096893;28;872;-57
2023/12/26 09:47:29;;;;;;;;;;;;;;;;;;5095586;28;745;-57
2023/12/26 09:49:54;;;;;;;;;;;;;;;;;;5095538;28;892;-57
2023/12/26 09:52:21;;;;;;;;;;;;;;;;;;5096187;28;927;-57
2023/12/26 09:54:47;;;;;;;;;;;;;;;;;;5096753;28;1902;-58
2023/12/26 09:57:12;;;;;;;;;;;;;;;;;;5096539;28;942;-58
2023/12/26 09:59:39;;;;;;;;;;;;;;;;;;5097107;28;927;-59
2023/12/26 10:02:08;;;;;;;;;;;;;;;;;;5095441;28;1351;-58
2023/12/26 10:04:33;;;;;;;;;;;;;;;;;;5096774;28;844;-59
2023/12/26 10:06:58;;;;;;;;;;;;;;;;;;5085472;28;1139;-59
2023/12/26 10:09:24;;;;;;;;;;;;;;;;;;5084438;28;1215;-59
2023/12/26 10:11:51;;;;;;;;;;;;;;;;;;5076054;28;1152;-59
2023/12/26 10:14:26;;;;;;;;;;;;;;;;;;5073348;28;1968;-59
2023/12/26 10:16:51;;;;;;;;;;;;;;;;;;5079408;28;1214;-59
2023/12/26 10:19:17;;;;;;;;;;;;;;;;;;5081642;28;1164;-59
2023/12/26 10:21:42;;;;;;;;;;;;;;;;;;5072046;28;1164;-59
2023/12/26 10:24:11;;;;;;;;;;;;;;;;;;5075320;28;1172;-59
2023/12/26 10:26:36;;;;;;;;;;;;;;;;;;5076372;28;911;-59
2023/12/26 10:29:02;;;;;;;;;;;;;;;;;;5075693;28;1094;-59
2023/12/26 10:31:27;;;;;;;;;;;;;;;;;;5074650;28;911;-59
2023/12/26 10:33:53;;;;;;;;;;;;;;;;;;5075319;28;1898;-59
2023/12/26 10:36:19;;;;;;;;;;;;;;;;;;5075854;28;860;-58
2023/12/26 10:38:45;;;;;;;;;;;;;;;;;;5074814;28;920;-58
2023/12/26 10:41:16;;;;;;;;;;;;;;;;;;5075622;28;892;-59
2023/12/26 10:43:43;;;;;;;;;;;;;;;;;;5075303;28;955;-59
2023/12/26 10:46:08;;;;;;;;;;;;;;;;;;5076010;28;855;-58
2023/12/26 10:48:34;;;;;;;;;;;;;;;;;;5075402;28;935;-58
2023/12/26 10:51:00;;;;;;;;;;;;;;;;;;5075137;28;828;-58
2023/12/26 10:53:31;;;;;;;;;;;;;;;;;;5075235;28;1898;-59
2023/12/26 10:55:57;;;;;;;;;;;;;;;;;;5075841;28;859;-59
2023/12/26 10:58:29;;;;;;;;;;;;;;;;;;5074166;28;848;-59
2023/12/26 13:52:01;;;;;;;;;;;;;;;;;;5096576;28;920;-58
2023/12/26 13:54:44;;;;;;;;;;;;;;;;;;5096189;28;1964;-59
2023/12/26 13:57:28;;;;;;;;;;;;;;;;;;5095937;28;943;-58
2023/12/26 14:00:13;;;;;;;;;;;;;;;;;;5096000;28;885;-58
2023/12/26 14:02:56;;;;;;;;;;;;;;;;;;5096188;28;836;-58
2023/12/26 14:05:40;;;;;;;;;;;;;;;;;;5092065;28;1191;-58
2023/12/26 14:08:24;;;;;;;;;;;;;;;;;;5072031;28;1031;-58
2023/12/26 14:11:08;;;;;;;;;;;;;;;;;;5077868;28;1219;-61
2023/12/26 14:13:52;;;;;;;;;;;;;;;;;;5089530;28;1934;-58
2023/12/26 14:16:36;;;;;;;;;;;;;;;;;;5078636;28;1159;-58
2023/12/26 14:19:20;;;;;;;;;;;;;;;;;;5083907;28;1155;-58
2023/12/26 14:22:03;;;;;;;;;;;;;;;;;;5080748;28;1219;-58
2023/12/26 14:24:47;;;;;;;;;;;;;;;;;;5094380;28;1214;-58
2023/12/26 14:27:31;;;;;;;;;;;;;;;;;;5095568;28;1087;-58
2023/12/26 14:30:15;;;;;;;;;;;;;;;;;;5095051;28;896;-58
2023/12/26 14:32:59;;;;;;;;;;;;;;;;;;5095849;28;894;-58
2023/12/26 14:35:43;;;;;;;;;;;;;;;;;;5095378;28;1914;-57
2023/12/26 14:38:27;;;;;;;;;;;;;;;;;;5095271;28;907;-57
2023/12/26 14:41:11;;;;;;;;;;;;;;;;;;5095303;28;841;-59
2023/12/26 14:43:55;;;;;;;;;;;;;;;;;;5095257;28;1112;-58
2023/12/26 14:46:39;;;;;;;;;;;;;;;;;;5095443;28;939;-57
2023/12/26 14:49:23;;;;;;;;;;;;;;;;;;5095266;28;883;-58
2023/12/26 14:52:08;;;;;;;;;;;;;;;;;;5095278;28;817;-58
2023/12/26 14:54:52;;;;;;;;;;;;;;;;;;5093672;28;1968;-58
2023/12/26 14:57:36;;;;;;;;;;;;;;;;;;5094980;28;840;-59
2023/12/26 15:00:20;;;;;;;;;;;;;;;;;;5094757;28;860;-58
2023/12/26 15:02:46;;;;;;;;;;;;;;;;;;5089355;28;1265;-58
2023/12/26 15:05:12;;;;;;;;;;;;;;;;;;5075898;28;1167;-59
2023/12/26 15:07:37;;;;;;;;;;;;;;;;;;5078592;28;1298;-61
2023/12/26 15:10:04;;;;;;;;;;;;;;;;;;5081070;28;1218;-58
2023/12/26 15:12:29;;;;;;;;;;;;;;;;;;5082135;28;1206;-58
2023/12/26 15:14:54;;;;;;;;;;;;;;;;;;5082417;28;1894;-58
2023/12/26 15:17:20;;;;;;;;;;;;;;;;;;5092672;28;1259;-59
2023/12/26 15:19:45;;;;;;;;;;;;;;;;;;5094632;28;856;-58
2023/12/26 15:22:10;;;;;;;;;;;;;;;;;;5094092;28;970;-58
2023/12/26 15:24:35;;;;;;;;;;;;;;;;;;5075376;28;970;-58
2023/12/26 15:27:01;;;;;;;;;;;;;;;;;;5093244;28;836;-58
2023/12/26 15:29:26;;;;;;;;;;;;;;;;;;5094445;28;868;-58
2023/12/26 15:31:51;;;;;;;;;;;;;;;;;;5094292;28;765;-59
2023/12/26 15:34:17;;;;;;;;;;;;;;;;;;5094238;28;1957;-58
2023/12/26 15:36:43;;;;;;;;;;;;;;;;;;5094808;28;931;-59
2023/12/26 15:39:09;;;;;;;;;;;;;;;;;;5094034;28;964;-59
2023/12/26 15:41:35;;;;;;;;;;;;;;;;;;5091889;28;1656;-58
2023/12/26 15:44:01;;;;;;;;;;;;;;;;;;5094237;28;903;-58
2023/12/26 15:46:27;;;;;;;;;;;;;;;;;;5094481;28;911;-58
2023/12/26 15:48:53;;;;;;;;;;;;;;;;;;5094840;28;840;-58
2023/12/26 15:51:19;;;;;;;;;;;;;;;;;;5093996;28;971;-58
2023/12/26 15:53:45;;;;;;;;;;;;;;;;;;5094408;28;1964;-58
2023/12/26 15:56:10;;;;;;;;;;;;;;;;;;5093914;28;915;-59
2023/12/26 15:58:36;;;;;;;;;;;;;;;;;;5094494;28;962;-59
2023/12/26 16:01:01;;;;;;;;;;;;;;;;;;5094214;28;987;-59
2023/12/26 16:03:26;;;;;;;;;;;;;;;;;;5094394;28;998;-59
2023/12/26 16:05:51;;;;;;;;;;;;;;;;;;5094228;28;856;-59
2023/12/26 16:08:17;;;;;;;;;;;;;;;;;;5093892;28;974;-58
2023/12/26 16:10:42;;;;;;;;;;;;;;;;;;5094025;28;812;-58
2023/12/26 16:13:08;;;;;;;;;;;;;;;;;;5094582;28;832;-60
2023/12/26 16:15:33;;;;;;;;;;;;;;;;;;5094454;28;1953;-59
2023/12/26 16:17:58;;;;;;;;;;;;;;;;;;5093810;28;813;-59
2023/12/26 16:20:24;;;;;;;;;;;;;;;;;;5094077;28;831;-60
2023/12/26 16:22:49;;;;;;;;;;;;;;;;;;5094086;28;812;-60
2023/12/26 16:25:14;;;;;;;;;;;;;;;;;;5094048;28;1053;-59
2023/12/26 16:27:40;;;;;;;;;;;;;;;;;;5093833;28;789;-60
2023/12/26 16:30:05;;;;;;;;;;;;;;;;;;5094416;28;994;-59
2023/12/26 16:32:31;;;;;;;;;;;;;;;;;;5093879;28;868;-59
2023/12/26 16:34:56;;;;;;;;;;;;;;;;;;5093925;28;1968;-59
2023/12/26 16:37:21;;;;;;;;;;;;;;;;;;5096326;28;892;-59
2023/12/26 16:39:46;;;;;;;;;;;;;;;;;;5097637;28;915;-59
2023/12/26 16:42:12;;;;;;;;;;;;;;;;;;5097586;28;844;-59
2023/12/26 16:44:44;;;;;;;;;;;;;;;;;;5097785;28;864;-59
2023/12/26 16:47:09;;;;;;;;;;;;;;;;;;5097651;28;911;-59
2023/12/26 16:49:35;;;;;;;;;;;;;;;;;;5097631;28;972;-59
2023/12/26 16:52:00;;;;;;;;;;;;;;;;;;5097439;28;868;-59
2023/12/26 16:54:26;;;;;;;;;;;;;;;;;;5097240;28;1926;-59
2023/12/26 16:56:51;;;;;;;;;;;;;;;;;;5097568;28;853;-59
2023/12/26 16:59:16;;;;;;;;;;;;;;;;;;5097047;28;855;-59
2023/12/26 17:01:42;;;;;;;;;;;;;;;;;;5097548;28;915;-59
2023/12/26 17:04:07;;;;;;;;;;;;;;;;;;5097590;28;832;-60
2023/12/26 17:06:38;;;;;;;;;;;;;;;;;;5097435;28;900;-59
2023/12/26 17:09:04;;;;;;;;;;;;;;;;;;5096926;28;927;-59
2023/12/26 17:11:29;;;;;;;;;;;;;;;;;;5097632;28;872;-59
2023/12/26 17:13:54;;;;;;;;;;;;;;;;;;5096874;28;1906;-59
2023/12/26 17:16:20;;;;;;;;;;;;;;;;;;5097157;28;923;-59
2023/12/26 17:18:45;;;;;;;;;;;;;;;;;;5097543;28;825;-59
2023/12/26 17:21:10;;;;;;;;;;;;;;;;;;5096907;28;780;-59
2023/12/26 17:23:37;;;;;;;;;;;;;;;;;;5096398;28;852;-59
2023/12/26 17:26:03;;;;;;;;;;;;;;;;;;5095229;28;919;-60
2023/12/26 17:28:28;;;;;;;;;;;;;;;;;;5096785;28;1019;-59
2023/12/26 17:30:53;;;;;;;;;;;;;;;;;;5095541;28;892;-59
2023/12/26 17:33:18;;;;;;;;;;;;;;;;;;5096675;28;899;-58
2023/12/26 17:35:44;;;;;;;;;;;;;;;;;;5095849;28;1894;-59
2023/12/26 17:38:09;;;;;;;;;;;;;;;;;;5094871;28;876;-59
2023/12/26 17:40:35;;;;;;;;;;;;;;;;;;5096320;28;903;-59
2023/12/26 17:43:00;;;;;;;;;;;;;;;;;;5096200;28;770;-59
2023/12/26 17:45:27;;;;;;;;;;;;;;;;;;5096357;28;916;-59
2023/12/26 17:47:52;;;;;;;;;;;;;;;;;;5095825;28;920;-59
2023/12/26 17:50:17;;;;;;;;;;;;;;;;;;5095952;28;920;-59
2023/12/26 17:52:43;;;;;;;;;;;;;;;;;;5096022;28;907;-59
2023/12/26 17:55:08;;;;;;;;;;;;;;;;;;5095689;28;1913;-59
2023/12/26 17:57:33;;;;;;;;;;;;;;;;;;5095820;28;887;-59
2023/12/26 17:59:59;;;;;;;;;;;;;;;;;;5096360;28;977;-58
2023/12/26 18:02:24;;;;;;;;;;;;;;;;;;5095896;28;871;-59
2023/12/26 18:04:49;;;;;;;;;;;;;;;;;;5095045;28;931;-58
2023/12/26 18:07:15;;;;;;;;;;;;;;;;;;5095423;28;1026;-59
2023/12/26 18:09:40;;;;;;;;;;;;;;;;;;5095937;28;952;-60
2023/12/26 18:12:05;;;;;;;;;;;;;;;;;;5093625;28;1442;-59
2023/12/26 18:14:31;;;;;;;;;;;;;;;;;;5094464;28;1985;-58
2023/12/26 18:16:56;;;;;;;;;;;;;;;;;;5095552;28;903;-59
2023/12/26 18:19:21;;;;;;;;;;;;;;;;;;5095702;28;904;-60
2023/12/26 18:21:48;;;;;;;;;;;;;;;;;;5095886;28;880;-60
2023/12/26 18:24:14;;;;;;;;;;;;;;;;;;5096123;28;876;-58
2023/12/26 18:26:39;;;;;;;;;;;;;;;;;;5095940;28;963;-58
2023/12/26 18:29:05;;;;;;;;;;;;;;;;;;5096050;28;923;-59
2023/12/26 18:31:30;;;;;;;;;;;;;;;;;;5096008;28;860;-59
2023/12/26 18:33:56;;;;;;;;;;;;;;;;;;5095675;28;1897;-59
2023/12/26 18:36:21;;;;;;;;;;;;;;;;;;5095287;28;917;-59
2023/12/26 18:38:46;;;;;;;;;;;;;;;;;;5095672;28;903;-59
2023/12/26 18:41:14;;;;;;;;;;;;;;;;;;5095554;28;931;-58
2023/12/26 18:43:39;;;;;;;;;;;;;;;;;;5095598;28;828;-59
2023/12/26 18:46:09;;;;;;;;;;;;;;;;;;5095514;28;852;-59
2023/12/26 18:48:34;;;;;;;;;;;;;;;;;;5095425;28;943;-59
2023/12/26 18:51:00;;;;;;;;;;;;;;;;;;5095375;28;915;-59
2023/12/26 18:53:25;;;;;;;;;;;;;;;;;;5095164;28;924;-59
2023/12/26 18:55:51;;;;;;;;;;;;;;;;;;5094844;28;1886;-57
2023/12/26 18:58:16;;;;;;;;;;;;;;;;;;5094848;28;824;-59
2023/12/26 19:00:41;;;;;;;;;;;;;;;;;;5094528;28;919;-59
2023/12/26 19:03:07;;;;;;;;;;;;;;;;;;5095041;28;903;-58
2023/12/26 19:05:32;;;;;;;;;;;;;;;;;;5095201;28;855;-59
2023/12/26 19:07:57;;;;;;;;;;;;;;;;;;5094977;28;871;-59
2023/12/26 19:10:22;;;;;;;;;;;;;;;;;;5095268;28;887;-59
2023/12/26 19:12:48;;;;;;;;;;;;;;;;;;5094735;28;879;-60
2023/12/26 19:15:14;;;;;;;;;;;;;;;;;;5094837;28;1870;-58
2023/12/26 19:17:39;;;;;;;;;;;;;;;;;;5094775;28;904;-58
2023/12/26 19:20:05;;;;;;;;;;;;;;;;;;5094655;28;923;-59
2023/12/26 19:22:30;;;;;;;;;;;;;;;;;;5094316;28;888;-59
2023/12/26 19:24:56;;;;;;;;;;;;;;;;;;5094494;28;955;-60
2023/12/26 19:27:22;;;;;;;;;;;;;;;;;;5093291;28;1312;-58
2023/12/26 19:29:48;;;;;;;;;;;;;;;;;;5092943;28;868;-58
2023/12/26 19:32:13;;;;;;;;;;;;;;;;;;5094105;28;848;-58
2023/12/26 19:34:38;;;;;;;;;;;;;;;;;;5094252;28;1905;-59
2023/12/26 19:37:03;;;;;;;;;;;;;;;;;;5094501;28;857;-59
2023/12/26 19:39:29;;;;;;;;;;;;;;;;;;5093311;28;820;-58
2023/12/26 19:41:54;;;;;;;;;;;;;;;;;;5093964;28;833;-58
2023/12/26 19:44:21;;;;;;;;;;;;;;;;;;5092376;28;1055;-58
2023/12/26 19:46:47;;;;;;;;;;;;;;;;;;5094070;28;1014;-59
2023/12/26 19:49:12;;;;;;;;;;;;;;;;;;5093879;28;911;-58
2023/12/26 19:51:38;;;;;;;;;;;;;;;;;;5093096;28;875;-63
2023/12/26 19:54:04;;;;;;;;;;;;;;;;;;5093895;28;1894;-57
2023/12/26 19:56:29;;;;;;;;;;;;;;;;;;5094028;28;1014;-60
2023/12/26 19:58:54;;;;;;;;;;;;;;;;;;5094695;28;1074;-59
2023/12/26 20:01:20;;;;;;;;;;;;;;;;;;5093017;28;892;-58